sensor_id;sensor_type;location;lat;lon;timestamp;pressure;altitude;pressure_sealevel;temperature;humidity
52975;BME280;38839;45.186;5.720;2023-01-31T00:01:22;100153.97;;;4.87;66.35
52975;BME280;38839;45.186;5.720;2023-01-31T00:03:55;100148.81;;;4.87;66.27
52975;BME280;38839;45.186;5.720;2023-01-31T00:06:24;100149.69;;;4.87;66.23
52975;BME280;38839;45.186;5.720;2023-01-31T00:08:51;100145.44;;;4.89;66.05
52975;BME280;38839;45.186;5.720;2023-01-31T00:11:19;100139.25;;;4.84;65.99
52975;BME280;38839;45.186;5.720;2023-01-31T00:13:44;100135.72;;;4.82;65.62
52975;BME280;38839;45.186;5.720;2023-01-31T00:16:11;100130.97;;;4.70;65.05
52975;BME280;38839;45.186;5.720;2023-01-31T00:18:37;100127.06;;;4.81;65.24
52975;BME280;38839;45.186;5.720;2023-01-31T00:21:14;100125.75;;;4.93;65.40
52975;BME280;38839;45.186;5.720;2023-01-31T00:23:41;100121.50;;;4.95;65.41
52975;BME280;38839;45.186;5.720;2023-01-31T00:28:37;100118.41;;;5.05;64.93
52975;BME280;38839;45.186;5.720;2023-01-31T00:31:02;100119.41;;;5.09;64.70
52975;BME280;38839;45.186;5.720;2023-01-31T00:33:28;100120.28;;;5.09;64.65
52975;BME280;38839;45.186;5.720;2023-01-31T00:35:53;100120.84;;;4.52;62.85
52975;BME280;38839;45.186;5.720;2023-01-31T00:38:18;100120.28;;;4.37;62.42
52975;BME280;38839;45.186;5.720;2023-01-31T00:40:53;100125.50;;;4.38;62.77
52975;BME280;38839;45.186;5.720;2023-01-31T00:43:19;100128.63;;;4.30;62.47
52975;BME280;38839;45.186;5.720;2023-01-31T00:45:45;100125.72;;;3.98;62.16
52975;BME280;38839;45.186;5.720;2023-01-31T00:48:10;100121.19;;;3.92;61.51
52975;BME280;38839;45.186;5.720;2023-01-31T00:50:36;100124.94;;;4.00;62.19
52975;BME280;38839;45.186;5.720;2023-01-31T00:53:01;100131.13;;;4.06;62.71
52975;BME280;38839;45.186;5.720;2023-01-31T00:55:27;100122.25;;;3.76;61.83
52975;BME280;38839;45.186;5.720;2023-01-31T00:57:52;100116.78;;;3.90;63.06
52975;BME280;38839;45.186;5.720;2023-01-31T01:00:18;100112.59;;;3.93;62.62
52975;BME280;38839;45.186;5.720;2023-01-31T01:02:43;100122.91;;;3.71;61.75
52975;BME280;38839;45.186;5.720;2023-01-31T01:05:09;100134.56;;;3.61;62.04
52975;BME280;38839;45.186;5.720;2023-01-31T01:07:34;100125.13;;;3.61;61.77
52975;BME280;38839;45.186;5.720;2023-01-31T01:10:00;100131.66;;;3.53;61.72
52975;BME280;38839;45.186;5.720;2023-01-31T01:12:25;100127.88;;;3.66;61.56
52975;BME280;38839;45.186;5.720;2023-01-31T01:14:50;100122.38;;;3.57;61.71
52975;BME280;38839;45.186;5.720;2023-01-31T01:17:16;100124.94;;;3.57;61.48
52975;BME280;38839;45.186;5.720;2023-01-31T01:19:41;100119.09;;;3.61;61.56
52975;BME280;38839;45.186;5.720;2023-01-31T01:22:07;100120.22;;;3.68;61.61
52975;BME280;38839;45.186;5.720;2023-01-31T01:24:32;100131.41;;;3.68;61.40
52975;BME280;38839;45.186;5.720;2023-01-31T01:26:57;100131.78;;;3.77;62.43
52975;BME280;38839;45.186;5.720;2023-01-31T01:29:23;100133.91;;;3.88;61.74
52975;BME280;38839;45.186;5.720;2023-01-31T01:31:49;100143.25;;;3.63;61.60
52975;BME280;38839;45.186;5.720;2023-01-31T01:34:15;100144.69;;;3.56;61.50
52975;BME280;38839;45.186;5.720;2023-01-31T01:36:41;100145.25;;;3.49;61.81
52975;BME280;38839;45.186;5.720;2023-01-31T01:39:08;100147.66;;;3.45;61.87
52975;BME280;38839;45.186;5.720;2023-01-31T01:41:35;100147.69;;;3.46;61.81
52975;BME280;38839;45.186;5.720;2023-01-31T01:44:03;100153.81;;;3.48;61.48
52975;BME280;38839;45.186;5.720;2023-01-31T01:49:18;100155.63;;;3.30;61.99
52975;BME280;38839;45.186;5.720;2023-01-31T01:51:46;100163.75;;;3.18;62.50
52975;BME280;38839;45.186;5.720;2023-01-31T01:54:17;100164.09;;;3.06;62.73
52975;BME280;38839;45.186;5.720;2023-01-31T01:56:47;100170.88;;;3.04;62.84
52975;BME280;38839;45.186;5.720;2023-01-31T01:59:19;100171.25;;;3.13;62.72
52975;BME280;38839;45.186;5.720;2023-01-31T02:01:47;100173.94;;;2.95;63.32
52975;BME280;38839;45.186;5.720;2023-01-31T02:04:18;100171.97;;;2.90;63.78
52975;BME280;38839;45.186;5.720;2023-01-31T02:06:46;100178.88;;;2.91;63.54
52975;BME280;38839;45.186;5.720;2023-01-31T02:09:19;100171.41;;;2.97;63.38
52975;BME280;38839;45.186;5.720;2023-01-31T02:11:47;100171.69;;;2.84;63.59
52975;BME280;38839;45.186;5.720;2023-01-31T02:14:12;100186.41;;;2.86;63.62
52975;BME280;38839;45.186;5.720;2023-01-31T02:16:38;100185.38;;;2.82;63.68
52975;BME280;38839;45.186;5.720;2023-01-31T02:19:08;100186.22;;;2.81;63.92
52975;BME280;38839;45.186;5.720;2023-01-31T02:21:51;100192.91;;;2.78;64.03
52975;BME280;38839;45.186;5.720;2023-01-31T02:39:13;100214.31;;;2.57;63.79
52975;BME280;38839;45.186;5.720;2023-01-31T02:43:56;100200.91;;;2.84;63.07
52975;BME280;38839;45.186;5.720;2023-01-31T02:49:21;100209.47;;;2.83;62.89
52975;BME280;38839;45.186;5.720;2023-01-31T02:54:50;100212.56;;;2.56;63.59
52975;BME280;38839;45.186;5.720;2023-01-31T02:57:36;100211.75;;;2.57;63.58
52975;BME280;38839;45.186;5.720;2023-01-31T03:00:04;100222.25;;;2.62;63.28
52975;BME280;38839;45.186;5.720;2023-01-31T03:02:30;100213.06;;;2.67;63.47
52975;BME280;38839;45.186;5.720;2023-01-31T03:04:56;100230.66;;;2.58;63.34
52975;BME280;38839;45.186;5.720;2023-01-31T03:07:23;100224.94;;;2.46;64.07
52975;BME280;38839;45.186;5.720;2023-01-31T03:21:35;100257.34;;;2.40;64.28
52975;BME280;38839;45.186;5.720;2023-01-31T03:24:04;100251.88;;;2.34;64.66
52975;BME280;38839;45.186;5.720;2023-01-31T03:26:31;100261.06;;;2.29;64.81
52975;BME280;38839;45.186;5.720;2023-01-31T03:29:00;100261.03;;;2.28;64.98
52975;BME280;38839;45.186;5.720;2023-01-31T03:31:35;100263.81;;;2.32;64.77
52975;BME280;38839;45.186;5.720;2023-01-31T03:34:05;100260.66;;;2.38;64.65
52975;BME280;38839;45.186;5.720;2023-01-31T03:42:25;100263.06;;;2.53;64.38
52975;BME280;38839;45.186;5.720;2023-01-31T03:45:13;100258.31;;;2.62;64.24
52975;BME280;38839;45.186;5.720;2023-01-31T03:47:43;100268.41;;;2.75;63.57
52975;BME280;38839;45.186;5.720;2023-01-31T03:50:22;100266.28;;;2.67;64.11
52975;BME280;38839;45.186;5.720;2023-01-31T03:52:54;100262.09;;;2.69;64.07
52975;BME280;38839;45.186;5.720;2023-01-31T03:55:26;100280.44;;;2.76;63.91
52975;BME280;38839;45.186;5.720;2023-01-31T03:57:55;100267.00;;;2.64;64.03
52975;BME280;38839;45.186;5.720;2023-01-31T04:00:23;100268.19;;;2.71;63.83
52975;BME280;38839;45.186;5.720;2023-01-31T04:02:57;100269.88;;;2.70;64.00
52975;BME280;38839;45.186;5.720;2023-01-31T04:05:24;100277.25;;;2.63;64.40
52975;BME280;38839;45.186;5.720;2023-01-31T04:07:55;100270.13;;;2.57;64.04
52975;BME280;38839;45.186;5.720;2023-01-31T04:10:21;100279.69;;;2.59;64.20
52975;BME280;38839;45.186;5.720;2023-01-31T04:12:46;100288.22;;;2.40;64.67
52975;BME280;38839;45.186;5.720;2023-01-31T04:15:12;100288.03;;;2.36;65.00
52975;BME280;38839;45.186;5.720;2023-01-31T04:17:37;100286.03;;;2.30;65.11
52975;BME280;38839;45.186;5.720;2023-01-31T04:20:04;100301.47;;;2.30;65.38
52975;BME280;38839;45.186;5.720;2023-01-31T04:22:30;100310.88;;;2.12;65.79
52975;BME280;38839;45.186;5.720;2023-01-31T04:24:56;100301.03;;;2.03;65.92
52975;BME280;38839;45.186;5.720;2023-01-31T04:27:21;100318.66;;;1.95;66.13
52975;BME280;38839;45.186;5.720;2023-01-31T04:29:46;100311.44;;;2.06;66.02
52975;BME280;38839;45.186;5.720;2023-01-31T04:32:12;100325.84;;;2.03;66.26
52975;BME280;38839;45.186;5.720;2023-01-31T04:34:37;100324.88;;;1.83;66.86
52975;BME280;38839;45.186;5.720;2023-01-31T04:37:03;100330.25;;;1.87;66.75
52975;BME280;38839;45.186;5.720;2023-01-31T04:39:28;100324.09;;;2.01;66.53
52975;BME280;38839;45.186;5.720;2023-01-31T04:41:54;100335.44;;;2.05;66.25
52975;BME280;38839;45.186;5.720;2023-01-31T04:44:19;100328.50;;;2.04;66.31
52975;BME280;38839;45.186;5.720;2023-01-31T04:46:44;100324.25;;;2.05;66.12
52975;BME280;38839;45.186;5.720;2023-01-31T04:49:13;100327.19;;;2.12;65.71
52975;BME280;38839;45.186;5.720;2023-01-31T04:51:38;100325.50;;;2.13;65.82
52975;BME280;38839;45.186;5.720;2023-01-31T04:54:04;100328.16;;;2.14;65.61
52975;BME280;38839;45.186;5.720;2023-01-31T04:56:30;100327.88;;;2.26;65.78
52975;BME280;38839;45.186;5.720;2023-01-31T04:58:56;100329.94;;;2.33;65.28
52975;BME280;38839;45.186;5.720;2023-01-31T05:01:22;100344.97;;;2.42;65.15
52975;BME280;38839;45.186;5.720;2023-01-31T05:03:47;100333.56;;;2.37;64.86
52975;BME280;38839;45.186;5.720;2023-01-31T05:06:12;100341.06;;;2.32;64.95
52975;BME280;38839;45.186;5.720;2023-01-31T05:08:38;100328.78;;;2.45;64.67
52975;BME280;38839;45.186;5.720;2023-01-31T05:11:04;100339.81;;;2.24;64.78
52975;BME280;38839;45.186;5.720;2023-01-31T05:13:33;100344.72;;;2.19;65.35
52975;BME280;38839;45.186;5.720;2023-01-31T05:16:06;100329.72;;;2.29;64.99
52975;BME280;38839;45.186;5.720;2023-01-31T05:18:31;100341.91;;;2.15;65.30
52975;BME280;38839;45.186;5.720;2023-01-31T05:20:59;100338.53;;;2.16;65.55
52975;BME280;38839;45.186;5.720;2023-01-31T05:23:24;100335.81;;;2.13;65.88
52975;BME280;38839;45.186;5.720;2023-01-31T05:25:50;100346.91;;;2.12;65.74
52975;BME280;38839;45.186;5.720;2023-01-31T05:28:15;100349.28;;;2.07;65.84
52975;BME280;38839;45.186;5.720;2023-01-31T05:30:41;100347.06;;;2.15;65.58
52975;BME280;38839;45.186;5.720;2023-01-31T05:33:06;100343.47;;;2.11;65.85
52975;BME280;38839;45.186;5.720;2023-01-31T05:35:31;100350.09;;;2.24;65.66
52975;BME280;38839;45.186;5.720;2023-01-31T05:37:58;100355.38;;;2.27;65.70
52975;BME280;38839;45.186;5.720;2023-01-31T05:40:23;100358.47;;;2.20;65.60
52975;BME280;38839;45.186;5.720;2023-01-31T05:42:53;100368.50;;;1.97;66.21
52975;BME280;38839;45.186;5.720;2023-01-31T05:45:19;100364.75;;;1.91;66.38
52975;BME280;38839;45.186;5.720;2023-01-31T05:47:47;100359.81;;;1.95;66.17
52975;BME280;38839;45.186;5.720;2023-01-31T05:50:13;100370.16;;;1.79;66.51
52975;BME280;38839;45.186;5.720;2023-01-31T05:52:39;100378.75;;;1.79;67.04
52975;BME280;38839;45.186;5.720;2023-01-31T05:55:04;100387.50;;;1.99;66.57
52975;BME280;38839;45.186;5.720;2023-01-31T05:57:30;100385.38;;;1.92;66.70
52975;BME280;38839;45.186;5.720;2023-01-31T05:59:55;100392.16;;;1.90;66.68
52975;BME280;38839;45.186;5.720;2023-01-31T06:02:21;100382.91;;;1.77;67.04
52975;BME280;38839;45.186;5.720;2023-01-31T06:04:46;100395.22;;;1.83;66.58
52975;BME280;38839;45.186;5.720;2023-01-31T06:07:11;100400.38;;;1.83;66.81
52975;BME280;38839;45.186;5.720;2023-01-31T06:09:37;100400.38;;;1.83;67.07
52975;BME280;38839;45.186;5.720;2023-01-31T06:12:05;100394.91;;;1.77;67.38
52975;BME280;38839;45.186;5.720;2023-01-31T06:14:30;100403.09;;;1.86;66.67
52975;BME280;38839;45.186;5.720;2023-01-31T06:16:56;100405.34;;;1.80;67.03
52975;BME280;38839;45.186;5.720;2023-01-31T06:19:21;100398.44;;;1.79;67.19
52975;BME280;38839;45.186;5.720;2023-01-31T06:21:50;100406.31;;;1.82;66.99
52975;BME280;38839;45.186;5.720;2023-01-31T06:24:15;100391.84;;;1.84;67.08
52975;BME280;38839;45.186;5.720;2023-01-31T06:26:40;100389.34;;;1.86;67.03
52975;BME280;38839;45.186;5.720;2023-01-31T06:29:07;100394.72;;;1.74;67.25
52975;BME280;38839;45.186;5.720;2023-01-31T06:31:33;100390.84;;;1.98;66.69
52975;BME280;38839;45.186;5.720;2023-01-31T06:33:58;100403.69;;;2.15;65.91
52975;BME280;38839;45.186;5.720;2023-01-31T06:36:23;100401.94;;;2.14;65.72
52975;BME280;38839;45.186;5.720;2023-01-31T06:38:50;100400.03;;;2.10;65.84
52975;BME280;38839;45.186;5.720;2023-01-31T06:41:20;100409.16;;;2.21;65.73
52975;BME280;38839;45.186;5.720;2023-01-31T06:43:45;100408.94;;;2.16;65.63
52975;BME280;38839;45.186;5.720;2023-01-31T06:46:11;100408.44;;;2.24;65.36
52975;BME280;38839;45.186;5.720;2023-01-31T06:48:36;100411.06;;;2.25;65.67
52975;BME280;38839;45.186;5.720;2023-01-31T06:51:02;100410.06;;;2.39;64.82
52975;BME280;38839;45.186;5.720;2023-01-31T06:53:27;100413.38;;;2.71;64.54
52975;BME280;38839;45.186;5.720;2023-01-31T06:55:53;100421.34;;;2.41;64.57
52975;BME280;38839;45.186;5.720;2023-01-31T06:58:18;100434.25;;;2.25;65.47
52975;BME280;38839;45.186;5.720;2023-01-31T07:00:43;100441.34;;;2.13;65.86
52975;BME280;38839;45.186;5.720;2023-01-31T07:03:09;100448.91;;;2.26;65.44
52975;BME280;38839;45.186;5.720;2023-01-31T07:05:34;100449.88;;;2.12;65.66
52975;BME280;38839;45.186;5.720;2023-01-31T07:07:59;100447.47;;;1.98;66.15
52975;BME280;38839;45.186;5.720;2023-01-31T07:10:25;100444.66;;;1.94;66.17
52975;BME280;38839;45.186;5.720;2023-01-31T07:12:50;100463.50;;;1.93;66.23
52975;BME280;38839;45.186;5.720;2023-01-31T07:15:16;100458.25;;;1.75;66.63
52975;BME280;38839;45.186;5.720;2023-01-31T07:17:41;100466.94;;;1.77;66.81
52975;BME280;38839;45.186;5.720;2023-01-31T07:20:08;100470.50;;;1.79;67.00
52975;BME280;38839;45.186;5.720;2023-01-31T07:22:34;100461.56;;;1.56;67.47
52975;BME280;38839;45.186;5.720;2023-01-31T07:24:59;100457.94;;;1.69;67.28
52975;BME280;38839;45.186;5.720;2023-01-31T07:27:25;100464.53;;;1.80;67.47
52975;BME280;38839;45.186;5.720;2023-01-31T07:29:51;100466.22;;;1.79;67.30
52975;BME280;38839;45.186;5.720;2023-01-31T07:32:16;100467.84;;;1.94;66.85
52975;BME280;38839;45.186;5.720;2023-01-31T07:34:42;100474.66;;;1.77;66.87
52975;BME280;38839;45.186;5.720;2023-01-31T07:37:07;100481.56;;;1.94;66.50
52975;BME280;38839;45.186;5.720;2023-01-31T07:39:33;100484.31;;;1.97;66.23
52975;BME280;38839;45.186;5.720;2023-01-31T07:41:58;100480.94;;;2.15;66.27
52975;BME280;38839;45.186;5.720;2023-01-31T07:44:23;100489.94;;;2.23;66.21
52975;BME280;38839;45.186;5.720;2023-01-31T07:46:49;100491.72;;;2.24;65.81
52975;BME280;38839;45.186;5.720;2023-01-31T07:49:16;100500.41;;;2.10;66.01
52975;BME280;38839;45.186;5.720;2023-01-31T07:51:41;100495.59;;;2.16;65.97
52975;BME280;38839;45.186;5.720;2023-01-31T07:54:09;100500.41;;;2.26;65.51
52975;BME280;38839;45.186;5.720;2023-01-31T07:56:35;100506.03;;;2.03;66.11
52975;BME280;38839;45.186;5.720;2023-01-31T07:59:00;100516.19;;;2.16;66.13
52975;BME280;38839;45.186;5.720;2023-01-31T08:01:26;100510.53;;;2.07;66.16
52975;BME280;38839;45.186;5.720;2023-01-31T08:04:13;100514.34;;;2.13;66.30
52975;BME280;38839;45.186;5.720;2023-01-31T08:06:40;100521.88;;;2.10;65.95
52975;BME280;38839;45.186;5.720;2023-01-31T08:09:06;100520.19;;;2.11;66.21
52975;BME280;38839;45.186;5.720;2023-01-31T08:11:32;100525.75;;;2.18;65.96
52975;BME280;38839;45.186;5.720;2023-01-31T08:13:57;100523.25;;;2.04;66.21
52975;BME280;38839;45.186;5.720;2023-01-31T08:16:23;100530.97;;;2.20;65.85
52975;BME280;38839;45.186;5.720;2023-01-31T08:18:48;100530.66;;;2.14;65.64
52975;BME280;38839;45.186;5.720;2023-01-31T08:21:15;100535.16;;;2.51;65.07
52975;BME280;38839;45.186;5.720;2023-01-31T08:23:41;100530.63;;;2.97;63.93
52975;BME280;38839;45.186;5.720;2023-01-31T08:26:11;100533.50;;;3.21;63.20
52975;BME280;38839;45.186;5.720;2023-01-31T08:28:37;100546.09;;;3.15;63.39
52975;BME280;38839;45.186;5.720;2023-01-31T08:31:03;100545.78;;;3.09;63.24
52975;BME280;38839;45.186;5.720;2023-01-31T08:33:28;100540.13;;;3.52;62.04
52975;BME280;38839;45.186;5.720;2023-01-31T08:35:54;100547.00;;;3.34;62.22
52975;BME280;38839;45.186;5.720;2023-01-31T08:38:19;100548.91;;;3.38;62.04
52975;BME280;38839;45.186;5.720;2023-01-31T08:40:45;100553.75;;;3.32;62.68
52975;BME280;38839;45.186;5.720;2023-01-31T08:43:10;100554.66;;;3.50;62.16
52975;BME280;38839;45.186;5.720;2023-01-31T08:45:36;100554.97;;;3.38;62.33
52975;BME280;38839;45.186;5.720;2023-01-31T08:48:02;100554.34;;;3.44;61.93
52975;BME280;38839;45.186;5.720;2023-01-31T08:50:29;100551.72;;;3.25;62.05
52975;BME280;38839;45.186;5.720;2023-01-31T08:52:57;100553.47;;;3.26;62.01
52975;BME280;38839;45.186;5.720;2023-01-31T08:55:25;100556.84;;;3.60;61.68
52975;BME280;38839;45.186;5.720;2023-01-31T08:57:51;100547.97;;;3.91;60.63
52975;BME280;38839;45.186;5.720;2023-01-31T09:00:18;100560.34;;;3.98;60.55
52975;BME280;38839;45.186;5.720;2023-01-31T09:02:43;100555.47;;;4.05;60.26
52975;BME280;38839;45.186;5.720;2023-01-31T09:05:12;100552.84;;;3.85;60.31
52975;BME280;38839;45.186;5.720;2023-01-31T09:07:38;100555.81;;;3.75;60.72
52975;BME280;38839;45.186;5.720;2023-01-31T09:10:04;100564.97;;;4.06;60.31
52975;BME280;38839;45.186;5.720;2023-01-31T09:12:30;100568.63;;;3.91;60.20
52975;BME280;38839;45.186;5.720;2023-01-31T09:14:57;100562.94;;;3.98;59.72
52975;BME280;38839;45.186;5.720;2023-01-31T09:17:22;100548.94;;;4.13;59.68
52975;BME280;38839;45.186;5.720;2023-01-31T09:19:48;100556.56;;;4.29;59.25
52975;BME280;38839;45.186;5.720;2023-01-31T09:22:14;100561.47;;;4.62;58.83
52975;BME280;38839;45.186;5.720;2023-01-31T09:24:40;100573.41;;;4.79;58.20
52975;BME280;38839;45.186;5.720;2023-01-31T09:27:05;100569.50;;;4.29;58.61
52975;BME280;38839;45.186;5.720;2023-01-31T09:29:30;100579.63;;;4.25;58.90
52975;BME280;38839;45.186;5.720;2023-01-31T09:31:56;100581.59;;;3.93;59.53
52975;BME280;38839;45.186;5.720;2023-01-31T09:34:21;100579.00;;;3.73;59.85
52975;BME280;38839;45.186;5.720;2023-01-31T09:36:47;100582.38;;;3.54;60.67
52975;BME280;38839;45.186;5.720;2023-01-31T09:39:14;100588.28;;;3.70;60.15
52975;BME280;38839;45.186;5.720;2023-01-31T09:41:46;100576.47;;;3.75;60.26
52975;BME280;38839;45.186;5.720;2023-01-31T09:44:30;100581.25;;;3.85;59.74
52975;BME280;38839;45.186;5.720;2023-01-31T09:47:01;100578.91;;;4.09;59.52
52975;BME280;38839;45.186;5.720;2023-01-31T09:49:31;100578.59;;;4.21;59.02
52975;BME280;38839;45.186;5.720;2023-01-31T09:52:01;100580.72;;;4.49;58.42
52975;BME280;38839;45.186;5.720;2023-01-31T09:54:37;100582.09;;;4.41;58.34
52975;BME280;38839;45.186;5.720;2023-01-31T10:00:11;100582.75;;;4.37;58.57
52975;BME280;38839;45.186;5.720;2023-01-31T10:05:22;100583.78;;;4.60;57.86
52975;BME280;38839;45.186;5.720;2023-01-31T10:10:38;100583.78;;;4.60;58.07
52975;BME280;38839;45.186;5.720;2023-01-31T10:16:27;100575.59;;;4.70;57.51
52975;BME280;38839;45.186;5.720;2023-01-31T10:19:05;100573.69;;;4.66;57.63
52975;BME280;38839;45.186;5.720;2023-01-31T10:21:38;100568.94;;;4.36;57.72
52975;BME280;38839;45.186;5.720;2023-01-31T10:24:22;100557.06;;;4.20;57.95
52975;BME280;38839;45.186;5.720;2023-01-31T10:26:59;100557.84;;;4.19;57.87
52975;BME280;38839;45.186;5.720;2023-01-31T10:29:33;100548.78;;;4.10;58.31
52975;BME280;38839;45.186;5.720;2023-01-31T10:32:08;100547.16;;;4.12;58.35
52975;BME280;38839;45.186;5.720;2023-01-31T10:35:22;100554.94;;;4.31;57.76
52975;BME280;38839;45.186;5.720;2023-01-31T10:37:53;100552.72;;;4.39;57.57
52975;BME280;38839;45.186;5.720;2023-01-31T10:40:23;100554.47;;;4.40;57.36
52975;BME280;38839;45.186;5.720;2023-01-31T10:42:54;100554.25;;;4.35;57.65
52975;BME280;38839;45.186;5.720;2023-01-31T10:45:25;100547.31;;;4.34;57.90
52975;BME280;38839;45.186;5.720;2023-01-31T10:48:03;100552.56;;;4.55;57.35
52975;BME280;38839;45.186;5.720;2023-01-31T10:56:04;100562.88;;;4.36;57.90
52975;BME280;38839;45.186;5.720;2023-01-31T10:58:32;100543.97;;;4.56;57.82
52975;BME280;38839;45.186;5.720;2023-01-31T11:00:58;100539.22;;;4.46;57.53
52975;BME280;38839;45.186;5.720;2023-01-31T11:03:24;100531.13;;;4.58;57.52
52975;BME280;38839;45.186;5.720;2023-01-31T11:05:55;100530.13;;;4.35;58.29
52975;BME280;38839;45.186;5.720;2023-01-31T11:08:35;100519.69;;;4.53;58.02
52975;BME280;38839;45.186;5.720;2023-01-31T11:11:16;100515.97;;;4.87;57.40
52975;BME280;38839;45.186;5.720;2023-01-31T11:14:00;100517.41;;;4.80;56.85
52975;BME280;38839;45.186;5.720;2023-01-31T11:16:28;100507.78;;;4.97;57.12
52975;BME280;38839;45.186;5.720;2023-01-31T11:18:56;100486.03;;;5.14;56.42
52975;BME280;38839;45.186;5.720;2023-01-31T11:21:31;100484.41;;;5.16;56.67
52975;BME280;38839;45.186;5.720;2023-01-31T11:24:05;100472.91;;;5.53;55.79
52975;BME280;38839;45.186;5.720;2023-01-31T11:26:49;100459.63;;;5.44;56.31
52975;BME280;38839;45.186;5.720;2023-01-31T11:29:24;100452.66;;;5.43;56.32
52975;BME280;38839;45.186;5.720;2023-01-31T11:31:52;100458.78;;;5.68;55.91
52975;BME280;38839;45.186;5.720;2023-01-31T11:34:19;100456.78;;;5.60;55.66
52975;BME280;38839;45.186;5.720;2023-01-31T11:36:45;100441.00;;;5.77;55.59
52975;BME280;38839;45.186;5.720;2023-01-31T11:39:32;100439.28;;;5.77;55.60
52975;BME280;38839;45.186;5.720;2023-01-31T11:42:12;100433.72;;;5.67;55.64
52975;BME280;38839;45.186;5.720;2023-01-31T11:44:56;100429.16;;;5.83;55.17
52975;BME280;38839;45.186;5.720;2023-01-31T11:47:45;100434.53;;;5.65;55.84
52975;BME280;38839;45.186;5.720;2023-01-31T11:50:32;100423.19;;;5.86;55.44
52975;BME280;38839;45.186;5.720;2023-01-31T11:53:03;100421.91;;;5.97;55.29
52975;BME280;38839;45.186;5.720;2023-01-31T11:55:38;100416.03;;;6.27;54.92
52975;BME280;38839;45.186;5.720;2023-01-31T11:58:31;100406.16;;;6.41;54.52
52975;BME280;38839;45.186;5.720;2023-01-31T12:01:01;100410.09;;;6.30;54.52
52975;BME280;38839;45.186;5.720;2023-01-31T12:03:31;100404.66;;;6.22;54.60
52975;BME280;38839;45.186;5.720;2023-01-31T12:06:05;100407.03;;;6.41;54.34
52975;BME280;38839;45.186;5.720;2023-01-31T12:13:50;100386.22;;;6.65;54.03
52975;BME280;38839;45.186;5.720;2023-01-31T12:16:19;100380.97;;;6.64;53.87
52975;BME280;38839;45.186;5.720;2023-01-31T12:18:58;100383.34;;;6.56;53.90
52975;BME280;38839;45.186;5.720;2023-01-31T12:24:21;100369.88;;;6.68;53.99
52975;BME280;38839;45.186;5.720;2023-01-31T12:26:57;100358.81;;;6.47;54.07
52975;BME280;38839;45.186;5.720;2023-01-31T12:29:57;100366.34;;;6.66;53.75
52975;BME280;38839;45.186;5.720;2023-01-31T12:37:53;100356.69;;;6.60;54.10
52975;BME280;38839;45.186;5.720;2023-01-31T12:40:38;100353.09;;;6.57;54.17
52975;BME280;38839;45.186;5.720;2023-01-31T12:43:16;100350.44;;;6.55;54.45
52975;BME280;38839;45.186;5.720;2023-01-31T12:57:07;100332.38;;;7.14;53.46
52975;BME280;38839;45.186;5.720;2023-01-31T13:04:58;100319.72;;;7.25;53.47
52975;BME280;38839;45.186;5.720;2023-01-31T13:07:38;100321.84;;;7.38;53.07
52975;BME280;38839;45.186;5.720;2023-01-31T13:10:19;100309.50;;;7.31;52.93
52975;BME280;38839;45.186;5.720;2023-01-31T13:12:49;100305.19;;;7.32;53.22
52975;BME280;38839;45.186;5.720;2023-01-31T13:17:47;100305.88;;;7.56;52.40
52975;BME280;38839;45.186;5.720;2023-01-31T13:20:33;100295.66;;;7.62;52.23
52975;BME280;38839;45.186;5.720;2023-01-31T13:23:11;100292.56;;;7.76;52.13
52975;BME280;38839;45.186;5.720;2023-01-31T13:25:41;100287.53;;;7.82;52.22
52975;BME280;38839;45.186;5.720;2023-01-31T13:28:29;100289.53;;;7.92;51.89
52975;BME280;38839;45.186;5.720;2023-01-31T13:30:58;100280.81;;;7.90;52.03
52975;BME280;38839;45.186;5.720;2023-01-31T13:34:09;100276.69;;;7.98;51.75
52975;BME280;38839;45.186;5.720;2023-01-31T13:36:57;100268.97;;;8.01;51.63
52975;BME280;38839;45.186;5.720;2023-01-31T13:39:45;100265.44;;;7.99;51.83
52975;BME280;38839;45.186;5.720;2023-01-31T13:42:14;100269.97;;;8.06;51.71
52975;BME280;38839;45.186;5.720;2023-01-31T13:44:41;100271.84;;;8.14;51.56
52975;BME280;38839;45.186;5.720;2023-01-31T13:47:29;100272.94;;;8.22;51.34
52975;BME280;38839;45.186;5.720;2023-01-31T13:50:15;100276.22;;;8.15;51.56
52975;BME280;38839;45.186;5.720;2023-01-31T13:52:50;100259.63;;;8.08;51.39
